Time;durP1;ratioP1;P1;durP2;ratioP2;P2;SDS_P1;SDS_P2;PMS_P1;PMS_P2;Temp;Humidity;BMP_temperature;BMP_pressure;BME280_temperature;BME280_humidity;BME280_pressure;Samples;Min_cycle;Max_cycle;Signal;HPM_P1;HPM_P2
2023/05/24 00:02:14;;;;;;;9.23;8.52;;;;;;;;;;5030998;28;20399;-81
2023/05/24 00:04:40;;;;;;;9.10;8.40;;;;;;;;;;5031654;28;20391;-81
2023/05/24 00:07:07;;;;;;;9.00;8.30;;;;;;;;;;5031453;28;20474;-81
2023/05/24 00:09:33;;;;;;;8.63;8.03;;;;;;;;;;5031449;28;20386;-81
2023/05/24 00:11:59;;;;;;;9.10;8.50;;;;;;;;;;5029694;28;20407;-81
2023/05/24 00:14:25;;;;;;;9.80;8.35;;;;;;;;;;5029840;28;20375;-81
2023/05/24 00:16:51;;;;;;;8.85;8.13;;;;;;;;;;5031438;28;20429;-81
2023/05/24 00:19:17;;;;;;;9.10;8.40;;;;;;;;;;5030831;28;20422;-81
2023/05/24 00:21:44;;;;;;;9.05;8.27;;;;;;;;;;5031635;28;20397;-81
2023/05/24 00:24:11;;;;;;;8.18;7.57;;;;;;;;;;5031067;28;20387;-81
2023/05/24 00:26:37;;;;;;;8.70;8.10;;;;;;;;;;5031124;28;20466;-81
2023/05/24 00:29:03;;;;;;;8.88;8.27;;;;;;;;;;5031104;28;20462;-81
2023/05/24 00:31:29;;;;;;;9.03;8.23;;;;;;;;;;5030989;28;20415;-81
2023/05/24 00:33:55;;;;;;;8.82;8.23;;;;;;;;;;5030807;28;20382;-81
2023/05/24 00:36:21;;;;;;;9.18;8.48;;;;;;;;;;5030541;28;20857;-81
2023/05/24 00:38:47;;;;;;;9.15;8.55;;;;;;;;;;5030751;28;20384;-81
2023/05/24 00:41:14;;;;;;;9.70;8.90;;;;;;;;;;5030732;28;20433;-81
2023/05/24 00:43:43;;;;;;;9.20;8.50;;;;;;;;;;5030894;28;20938;-81
2023/05/24 00:46:20;;;;;;;9.55;8.70;;;;;;;;;;5030649;28;20756;-81
2023/05/24 00:48:48;;;;;;;9.57;8.80;;;;;;;;;;5031538;28;20475;-81
2023/05/24 00:51:14;;;;;;;9.48;8.88;;;;;;;;;;5034846;28;20415;-81
2023/05/24 00:53:41;;;;;;;8.32;7.68;;;;;;;;;;5033261;28;20387;-81
2023/05/24 00:56:08;;;;;;;8.77;7.97;;;;;;;;;;5034596;28;20494;-81
2023/05/24 00:58:34;;;;;;;8.48;7.75;;;;;;;;;;5034151;28;20876;-81
2023/05/24 01:01:01;;;;;;;8.40;7.80;;;;;;;;;;5034456;28;20419;-81
2023/05/24 01:03:29;;;;;;;8.75;8.07;;;;;;;;;;5034093;28;20390;-81
2023/05/24 01:05:58;;;;;;;8.82;8.13;;;;;;;;;;5034346;28;20426;-81
2023/05/24 01:08:30;;;;;;;8.70;8.10;;;;;;;;;;5034449;28;20421;-81
2023/05/24 01:11:01;;;;;;;8.05;7.43;;;;;;;;;;5034074;28;20896;-81
2023/05/24 01:13:31;;;;;;;8.03;7.37;;;;;;;;;;5034958;28;20888;-81
2023/05/24 01:16:04;;;;;;;8.23;7.63;;;;;;;;;;5034336;28;20445;-81
2023/05/24 01:18:34;;;;;;;8.52;7.93;;;;;;;;;;5033864;28;20414;-81
2023/05/24 01:21:03;;;;;;;8.77;8.17;;;;;;;;;;5033625;28;20398;-81
2023/05/24 01:23:30;;;;;;;9.32;8.63;;;;;;;;;;5034103;28;20387;-81
2023/05/24 01:26:08;;;;;;;8.48;7.88;;;;;;;;;;5033920;28;20426;-81
2023/05/24 01:28:34;;;;;;;9.75;8.95;;;;;;;;;;5034505;28;20486;-81
2023/05/24 01:31:01;;;;;;;9.40;8.60;;;;;;;;;;5033918;28;20486;-81
2023/05/24 01:33:27;;;;;;;9.05;8.35;;;;;;;;;;5034409;28;20379;-81
2023/05/24 01:35:53;;;;;;;8.63;8.03;;;;;;;;;;5033706;28;20391;-81
2023/05/24 01:38:19;;;;;;;9.18;8.57;;;;;;;;;;5033704;28;20459;-81
2023/05/24 01:40:47;;;;;;;9.57;8.88;;;;;;;;;;5033918;28;20935;-81
2023/05/24 01:43:13;;;;;;;9.48;8.32;;;;;;;;;;5032482;28;20387;-81
2023/05/24 01:45:44;;;;;;;9.85;9.13;;;;;;;;;;5033859;28;20410;-81
2023/05/24 01:48:17;;;;;;;10.25;9.43;;;;;;;;;;5033642;28;20383;-80
2023/05/24 01:50:46;;;;;;;9.20;8.50;;;;;;;;;;5033998;28;20497;-81
2023/05/24 01:53:13;;;;;;;9.20;8.50;;;;;;;;;;5032872;28;20413;-81
2023/05/24 01:55:40;;;;;;;9.00;8.40;;;;;;;;;;5033939;28;20875;-81
2023/05/24 01:58:06;;;;;;;9.10;8.40;;;;;;;;;;5033747;28;20395;-81
2023/05/24 02:00:33;;;;;;;9.95;9.15;;;;;;;;;;5033745;28;20386;-82
2023/05/24 02:03:00;;;;;;;10.25;9.45;;;;;;;;;;5032722;28;20399;-82
2023/05/24 02:05:26;;;;;;;9.93;9.13;;;;;;;;;;5033184;28;20478;-81
2023/05/24 02:07:52;;;;;;;8.98;8.27;;;;;;;;;;5033541;28;20470;-82
2023/05/24 02:10:18;;;;;;;8.70;8.10;;;;;;;;;;5033581;28;21312;-81
2023/05/24 02:12:44;;;;;;;9.63;8.75;;;;;;;;;;5033779;28;20387;-80
2023/05/24 02:15:13;;;;;;;9.27;8.57;;;;;;;;;;5035644;28;20389;-81
2023/05/24 02:17:39;;;;;;;9.07;8.27;;;;;;;;;;5033189;28;20714;-81
2023/05/24 02:20:05;;;;;;;9.43;8.48;;;;;;;;;;5033652;28;20433;-80
2023/05/24 02:22:31;;;;;;;8.63;7.97;;;;;;;;;;5030878;28;20411;-80
2023/05/24 02:24:57;;;;;;;8.45;7.85;;;;;;;;;;5018901;28;20400;-80
2023/05/24 02:27:23;;;;;;;8.05;7.45;;;;;;;;;;5029802;28;20874;-81
2023/05/24 02:29:49;;;;;;;8.23;7.57;;;;;;;;;;5031111;28;20382;-81
2023/05/24 02:32:16;;;;;;;8.65;7.90;;;;;;;;;;5032736;28;20399;-81
2023/05/24 02:34:42;;;;;;;9.38;8.48;;;;;;;;;;5032516;28;20394;-81
2023/05/24 02:37:08;;;;;;;8.85;7.97;;;;;;;;;;5032329;28;20379;-81
2023/05/24 02:39:34;;;;;;;8.45;7.82;;;;;;;;;;5032742;28;20406;-81
2023/05/24 02:42:00;;;;;;;8.27;7.67;;;;;;;;;;5032820;28;20497;-82
2023/05/24 02:44:26;;;;;;;8.68;7.88;;;;;;;;;;5033008;28;20449;-82
2023/05/24 02:46:52;;;;;;;8.73;8.13;;;;;;;;;;5031867;28;20387;-82
2023/05/24 02:49:18;;;;;;;8.95;8.32;;;;;;;;;;5031106;28;20427;-82
2023/05/24 02:51:44;;;;;;;8.93;8.23;;;;;;;;;;5029390;28;20438;-81
2023/05/24 02:54:10;;;;;;;8.50;7.80;;;;;;;;;;5033202;28;20760;-82
2023/05/24 02:56:38;;;;;;;8.20;7.60;;;;;;;;;;5032846;28;20375;-82
2023/05/24 02:59:04;;;;;;;8.10;7.50;;;;;;;;;;5032661;28;20379;-82
2023/05/24 03:01:30;;;;;;;8.23;7.63;;;;;;;;;;5032459;28;20391;-82
2023/05/24 03:03:56;;;;;;;7.60;7.07;;;;;;;;;;5032576;28;20432;-82
2023/05/24 03:06:22;;;;;;;8.43;7.75;;;;;;;;;;5032796;28;20383;-82
2023/05/24 03:08:48;;;;;;;7.87;7.17;;;;;;;;;;5032914;28;20481;-82
2023/05/24 03:11:14;;;;;;;7.22;6.70;;;;;;;;;;5032644;28;20545;-82
2023/05/24 03:13:41;;;;;;;7.30;6.70;;;;;;;;;;5031105;28;20486;-82
2023/05/24 03:16:07;;;;;;;7.38;6.88;;;;;;;;;;5033376;28;20391;-82
2023/05/24 03:18:33;;;;;;;7.20;6.60;;;;;;;;;;5032523;28;20425;-81
2023/05/24 03:20:59;;;;;;;7.05;6.45;;;;;;;;;;5033114;28;20470;-81
2023/05/24 03:23:25;;;;;;;6.70;6.10;;;;;;;;;;5031614;28;20395;-81
2023/05/24 03:25:52;;;;;;;6.88;6.38;;;;;;;;;;5031994;28;20394;-81
2023/05/24 03:28:20;;;;;;;7.82;7.22;;;;;;;;;;5032564;28;20394;-80
2023/05/24 03:30:47;;;;;;;8.00;7.43;;;;;;;;;;5030780;28;20434;-81
2023/05/24 03:33:13;;;;;;;7.82;7.22;;;;;;;;;;5032019;28;20429;-80
2023/05/24 03:35:39;;;;;;;7.10;6.60;;;;;;;;;;5031221;28;20884;-80
2023/05/24 03:38:05;;;;;;;8.13;7.43;;;;;;;;;;5021533;28;20397;-81
2023/05/24 03:40:32;;;;;;;7.18;6.68;;;;;;;;;;5025165;28;20409;-81
2023/05/24 03:42:58;;;;;;;7.63;7.03;;;;;;;;;;5017682;28;20383;-81
2023/05/24 03:45:25;;;;;;;7.20;6.70;;;;;;;;;;5031834;28;20536;-81
2023/05/24 03:47:51;;;;;;;7.85;7.28;;;;;;;;;;5031015;28;20430;-81
2023/05/24 03:50:17;;;;;;;7.28;6.78;;;;;;;;;;5031550;28;20923;-80
2023/05/24 03:52:43;;;;;;;7.50;7.00;;;;;;;;;;5031229;28;20387;-81
2023/05/24 03:55:09;;;;;;;7.63;7.03;;;;;;;;;;5032995;28;20930;-82
2023/05/24 03:57:35;;;;;;;7.47;6.88;;;;;;;;;;5031695;28;20379;-82
2023/05/24 04:00:01;;;;;;;7.57;6.97;;;;;;;;;;5027840;28;20398;-81
2023/05/24 04:02:27;;;;;;;6.97;6.47;;;;;;;;;;5029998;28;20521;-81
2023/05/24 04:04:53;;;;;;;7.82;7.32;;;;;;;;;;5030804;28;20387;-81
2023/05/24 04:07:19;;;;;;;7.73;7.13;;;;;;;;;;5029808;28;20379;-81
2023/05/24 04:09:45;;;;;;;8.13;7.53;;;;;;;;;;5031116;28;20710;-81
2023/05/24 04:12:11;;;;;;;7.30;6.80;;;;;;;;;;5031068;28;20410;-82
2023/05/24 04:14:37;;;;;;;7.50;7.00;;;;;;;;;;5036681;28;20379;-81
2023/05/24 04:17:04;;;;;;;8.30;7.70;;;;;;;;;;5031271;28;20375;-81
2023/05/24 04:19:30;;;;;;;7.97;7.43;;;;;;;;;;5030835;28;20423;-82
2023/05/24 04:21:57;;;;;;;7.88;7.28;;;;;;;;;;5031389;28;20437;-81
2023/05/24 04:24:23;;;;;;;7.78;7.28;;;;;;;;;;5034350;28;20379;-82
2023/05/24 04:26:50;;;;;;;8.15;7.55;;;;;;;;;;5035165;28;20401;-82
2023/05/24 04:29:17;;;;;;;8.57;7.97;;;;;;;;;;5035302;28;20386;-82
2023/05/24 04:31:43;;;;;;;8.57;7.97;;;;;;;;;;5033979;28;20418;-81
2023/05/24 04:34:13;;;;;;;9.33;8.63;;;;;;;;;;5034345;28;20422;-82
2023/05/24 04:36:40;;;;;;;8.60;7.95;;;;;;;;;;5034844;28;20386;-81
2023/05/24 04:39:06;;;;;;;9.10;8.47;;;;;;;;;;5032071;28;20478;-81
2023/05/24 04:41:34;;;;;;;9.07;8.38;;;;;;;;;;5033390;28;20391;-81
2023/05/24 04:44:03;;;;;;;9.43;8.73;;;;;;;;;;5030315;28;20893;-82
2023/05/24 04:46:30;;;;;;;9.27;8.48;;;;;;;;;;5033647;28;20390;-81
2023/05/24 04:48:56;;;;;;;9.15;8.48;;;;;;;;;;5034142;28;20386;-82
2023/05/24 04:51:22;;;;;;;9.70;8.90;;;;;;;;;;5034279;28;20768;-81
2023/05/24 04:53:48;;;;;;;10.50;9.70;;;;;;;;;;5034774;28;20879;-81
2023/05/24 04:56:15;;;;;;;9.45;8.75;;;;;;;;;;5024249;28;20396;-80
2023/05/24 04:58:41;;;;;;;10.38;9.60;;;;;;;;;;5019782;28;20390;-82
2023/05/24 05:01:07;;;;;;;10.55;9.80;;;;;;;;;;5033789;28;20394;-81
2023/05/24 05:03:33;;;;;;;9.95;9.15;;;;;;;;;;5033400;28;20383;-81
2023/05/24 05:05:59;;;;;;;10.00;9.30;;;;;;;;;;5035326;28;20780;-81
2023/05/24 05:08:25;;;;;;;10.38;9.60;;;;;;;;;;5035395;28;20390;-81
2023/05/24 05:10:51;;;;;;;9.95;9.20;;;;;;;;;;5033214;28;20419;-80
2023/05/24 05:13:17;;;;;;;10.23;9.43;;;;;;;;;;5034656;28;20382;-80
2023/05/24 05:15:43;;;;;;;9.60;8.90;;;;;;;;;;5027830;28;21118;-81
2023/05/24 05:18:09;;;;;;;10.10;9.40;;;;;;;;;;5034575;28;20407;-80
2023/05/24 05:20:35;;;;;;;10.10;9.40;;;;;;;;;;5033222;28;20391;-81
2023/05/24 05:23:02;;;;;;;9.35;8.65;;;;;;;;;;5034725;28;20872;-81
2023/05/24 05:25:29;;;;;;;10.38;9.52;;;;;;;;;;5034457;28;20423;-81
2023/05/24 05:27:55;;;;;;;10.07;9.27;;;;;;;;;;5036913;28;20389;-81
2023/05/24 05:30:21;;;;;;;10.50;9.77;;;;;;;;;;5030864;28;20425;-79
2023/05/24 05:32:47;;;;;;;10.10;9.30;;;;;;;;;;5032619;28;20470;-80
2023/05/24 05:35:13;;;;;;;9.10;8.50;;;;;;;;;;5025798;28;20880;-81
2023/05/24 05:37:39;;;;;;;10.23;9.43;;;;;;;;;;5033022;28;20432;-79
2023/05/24 05:40:06;;;;;;;10.35;9.50;;;;;;;;;;5034680;28;20448;-81
2023/05/24 05:42:32;;;;;;;9.38;8.68;;;;;;;;;;5032823;28;20422;-81
2023/05/24 05:44:58;;;;;;;10.02;9.32;;;;;;;;;;5028126;28;20406;-80
2023/05/24 05:47:24;;;;;;;10.40;9.60;;;;;;;;;;5033901;28;20437;-79
2023/05/24 05:49:50;;;;;;;10.70;9.90;;;;;;;;;;5032288;28;20418;-79
2023/05/24 05:52:16;;;;;;;10.90;9.98;;;;;;;;;;5033173;28;20438;-81
2023/05/24 05:54:42;;;;;;;10.68;9.95;;;;;;;;;;5034283;28;20462;-79
2023/05/24 05:57:10;;;;;;;11.90;10.90;;;;;;;;;;5034329;28;20378;-78
2023/05/24 05:59:37;;;;;;;12.40;11.20;;;;;;;;;;5034094;28;20379;-80
2023/05/24 06:02:04;;;;;;;11.37;10.37;;;;;;;;;;5034121;28;20896;-79
2023/05/24 06:04:30;;;;;;;11.43;10.52;;;;;;;;;;5033118;28;20419;-79
2023/05/24 06:06:56;;;;;;;11.45;10.55;;;;;;;;;;5046327;28;20385;-79
2023/05/24 06:09:22;;;;;;;11.18;10.38;;;;;;;;;;5034031;28;20751;-78
2023/05/24 06:11:48;;;;;;;10.30;9.60;;;;;;;;;;5033823;28;20413;-79
2023/05/24 06:14:17;;;;;;;10.18;9.48;;;;;;;;;;5034062;28;20454;-79
2023/05/24 06:16:44;;;;;;;10.93;10.00;;;;;;;;;;5033911;28;20391;-78
2023/05/24 06:19:11;;;;;;;11.68;10.82;;;;;;;;;;5032756;28;20423;-79
2023/05/24 06:21:37;;;;;;;11.10;10.20;;;;;;;;;;5033842;28;20387;-78
2023/05/24 06:24:03;;;;;;;11.77;10.82;;;;;;;;;;5033249;28;20391;-79
2023/05/24 06:26:29;;;;;;;12.37;11.47;;;;;;;;;;5033886;28;20469;-79
2023/05/24 06:28:56;;;;;;;12.75;11.70;;;;;;;;;;5033413;28;20463;-78
2023/05/24 06:31:22;;;;;;;12.65;11.55;;;;;;;;;;5033162;28;20406;-78
2023/05/24 06:33:47;;;;;;;10.60;9.80;;;;;;;;;;5032232;28;20942;-79
2023/05/24 06:36:13;;;;;;;12.38;11.27;;;;;;;;;;5033282;28;20391;-78
2023/05/24 06:38:40;;;;;;;12.60;11.38;;;;;;;;;;5032996;28;20744;-78
2023/05/24 06:41:07;;;;;;;11.52;10.52;;;;;;;;;;5033155;28;20415;-78
2023/05/24 06:43:33;;;;;;;12.40;11.40;;;;;;;;;;5032803;28;20483;-79
2023/05/24 06:45:59;;;;;;;11.73;10.73;;;;;;;;;;5033077;28;20474;-78
2023/05/24 06:48:25;;;;;;;12.20;11.20;;;;;;;;;;5033248;28;20387;-79
2023/05/24 06:50:52;;;;;;;12.48;11.50;;;;;;;;;;5032907;28;20924;-79
2023/05/24 06:53:18;;;;;;;11.40;10.60;;;;;;;;;;5032511;28;20418;-79
2023/05/24 06:55:44;;;;;;;11.43;10.52;;;;;;;;;;5031556;28;20403;-79
2023/05/24 06:58:13;;;;;;;10.97;10.20;;;;;;;;;;5032851;28;20387;-78
2023/05/24 07:00:40;;;;;;;11.57;10.57;;;;;;;;;;5031932;28;21067;-79
2023/05/24 07:03:06;;;;;;;11.27;10.38;;;;;;;;;;5032858;28;20414;-79
2023/05/24 07:05:32;;;;;;;12.23;11.30;;;;;;;;;;5027742;28;20450;-79
2023/05/24 07:07:58;;;;;;;10.80;10.00;;;;;;;;;;5032239;28;20391;-80
2023/05/24 07:10:24;;;;;;;12.00;11.00;;;;;;;;;;5031938;28;20773;-80
2023/05/24 07:12:51;;;;;;;11.20;10.40;;;;;;;;;;5032211;28;20390;-80
2023/05/24 07:15:17;;;;;;;11.70;10.60;;;;;;;;;;5032406;28;20390;-79
2023/05/24 07:17:43;;;;;;;11.25;10.45;;;;;;;;;;5032009;28;20383;-80
2023/05/24 07:20:10;;;;;;;10.83;10.03;;;;;;;;;;5032508;28;20374;-80
2023/05/24 07:22:36;;;;;;;10.13;9.13;;;;;;;;;;5032202;28;20379;-80
2023/05/24 07:25:03;;;;;;;10.70;9.80;;;;;;;;;;5032092;28;20721;-81
2023/05/24 07:27:29;;;;;;;10.13;9.32;;;;;;;;;;5031616;28;20379;-81
2023/05/24 07:29:55;;;;;;;10.57;9.75;;;;;;;;;;5035427;28;20380;-81
2023/05/24 07:32:22;;;;;;;10.43;9.52;;;;;;;;;;5031658;28;20481;-80
2023/05/24 07:34:49;;;;;;;10.77;9.88;;;;;;;;;;5032160;28;20385;-81
2023/05/24 07:37:16;;;;;;;10.77;9.83;;;;;;;;;;5031878;28;20379;-80
2023/05/24 07:39:42;;;;;;;11.68;10.68;;;;;;;;;;5031683;28;20391;-80
2023/05/24 07:42:08;;;;;;;11.77;10.88;;;;;;;;;;5031970;28;20385;-81
2023/05/24 07:44:34;;;;;;;11.50;10.40;;;;;;;;;;5030740;28;20795;-81
2023/05/24 07:47:01;;;;;;;11.70;10.60;;;;;;;;;;5032122;28;20764;-82
2023/05/24 07:49:27;;;;;;;10.63;9.77;;;;;;;;;;5031672;28;20419;-81
2023/05/24 07:51:57;;;;;;;10.80;10.00;;;;;;;;;;5031867;28;20407;-81
2023/05/24 07:54:23;;;;;;;11.65;10.75;;;;;;;;;;5031312;28;20418;-81
2023/05/24 07:56:49;;;;;;;11.17;10.27;;;;;;;;;;5031833;28;20468;-81
2023/05/24 07:59:15;;;;;;;11.48;10.57;;;;;;;;;;5030854;28;20378;-81
2023/05/24 08:01:41;;;;;;;11.63;10.63;;;;;;;;;;5031858;28;20390;-82
2023/05/24 08:04:08;;;;;;;11.10;10.10;;;;;;;;;;5031818;28;20379;-83
2023/05/24 08:06:34;;;;;;;11.70;10.60;;;;;;;;;;5025901;28;20406;-83
2023/05/24 08:09:01;;;;;;;11.45;10.57;;;;;;;;;;5021911;28;20379;-80
2023/05/24 08:11:27;;;;;;;12.02;11.02;;;;;;;;;;5031362;28;20407;-81
2023/05/24 08:13:53;;;;;;;11.27;10.38;;;;;;;;;;5034315;28;20387;-80
2023/05/24 08:16:19;;;;;;;11.60;10.60;;;;;;;;;;5032039;28;20395;-82
2023/05/24 08:18:45;;;;;;;10.55;9.57;;;;;;;;;;5030332;28;20411;-80
2023/05/24 08:21:11;;;;;;;10.60;9.60;;;;;;;;;;5031809;28;20387;-81
2023/05/24 08:23:37;;;;;;;10.57;9.68;;;;;;;;;;5031717;28;20467;-85
2023/05/24 08:26:03;;;;;;;10.88;9.90;;;;;;;;;;5032792;28;20403;-82
2023/05/24 08:28:29;;;;;;;9.80;9.00;;;;;;;;;;5030291;28;20466;-79
2023/05/24 08:30:56;;;;;;;10.45;9.55;;;;;;;;;;5031184;28;20807;-82
2023/05/24 08:33:22;;;;;;;10.40;9.40;;;;;;;;;;5031650;28;20383;-80
2023/05/24 08:35:51;;;;;;;10.05;9.15;;;;;;;;;;5032052;28;20379;-81
2023/05/24 08:38:17;;;;;;;10.27;9.48;;;;;;;;;;5031356;28;20490;-81
2023/05/24 08:40:44;;;;;;;9.95;9.13;;;;;;;;;;5032383;28;20398;-81
2023/05/24 08:43:13;;;;;;;9.85;9.05;;;;;;;;;;5033702;28;20375;-81
2023/05/24 08:45:39;;;;;;;9.77;8.88;;;;;;;;;;5031982;28;20740;-82
2023/05/24 08:48:06;;;;;;;8.90;8.10;;;;;;;;;;5032093;28;20744;-81
2023/05/24 08:50:32;;;;;;;9.95;8.90;;;;;;;;;;5031193;28;20846;-80
2023/05/24 08:53:00;;;;;;;8.30;7.60;;;;;;;;;;5031639;28;20385;-81
2023/05/24 08:55:27;;;;;;;9.37;8.37;;;;;;;;;;5030313;28;20387;-82
2023/05/24 08:57:55;;;;;;;9.37;8.53;;;;;;;;;;5030759;28;20407;-81
2023/05/24 09:00:21;;;;;;;9.40;8.50;;;;;;;;;;5030761;28;20457;-81
2023/05/24 09:02:48;;;;;;;9.38;8.57;;;;;;;;;;5030931;28;20379;-81
2023/05/24 09:05:20;;;;;;;8.80;8.00;;;;;;;;;;5031148;28;20491;-81
2023/05/24 09:07:47;;;;;;;8.75;8.02;;;;;;;;;;5018040;28;20406;-81
2023/05/24 09:10:13;;;;;;;9.68;8.57;;;;;;;;;;5031908;28;20383;-80
2023/05/24 09:12:40;;;;;;;9.88;8.60;;;;;;;;;;5034366;28;20506;-81
2023/05/24 09:15:07;;;;;;;8.77;8.07;;;;;;;;;;5034647;28;20383;-81
2023/05/24 09:17:37;;;;;;;8.93;8.13;;;;;;;;;;5033138;28;20466;-81
2023/05/24 09:20:05;;;;;;;9.50;8.60;;;;;;;;;;5034475;28;20413;-81
2023/05/24 09:22:32;;;;;;;9.82;8.93;;;;;;;;;;5038046;28;20741;-81
2023/05/24 09:25:01;;;;;;;8.32;7.63;;;;;;;;;;5033823;28;20388;-81
2023/05/24 09:27:27;;;;;;;8.60;7.72;;;;;;;;;;5033460;28;20391;-82
2023/05/24 09:29:55;;;;;;;9.02;8.23;;;;;;;;;;5027626;28;20385;-81
2023/05/24 09:32:23;;;;;;;7.93;7.15;;;;;;;;;;5028790;28;20411;-78
2023/05/24 09:34:50;;;;;;;8.43;7.63;;;;;;;;;;5033430;28;20395;-80
2023/05/24 09:37:17;;;;;;;8.57;7.72;;;;;;;;;;5032509;28;20379;-79
2023/05/24 09:39:43;;;;;;;7.57;6.88;;;;;;;;;;5033947;28;20395;-80
2023/05/24 09:42:17;;;;;;;8.40;7.60;;;;;;;;;;5031780;28;20403;-80
2023/05/24 09:44:44;;;;;;;8.65;7.85;;;;;;;;;;5031463;28;20407;-80
2023/05/24 09:47:11;;;;;;;8.85;7.78;;;;;;;;;;5032386;28;20395;-81
2023/05/24 09:49:37;;;;;;;8.40;7.65;;;;;;;;;;5034018;28;20380;-81
2023/05/24 09:52:03;;;;;;;8.40;7.60;;;;;;;;;;5033887;28;20416;-81
2023/05/24 09:54:31;;;;;;;8.13;7.33;;;;;;;;;;5034001;28;20437;-81
2023/05/24 09:57:00;;;;;;;8.45;7.65;;;;;;;;;;5033199;28;20454;-80
2023/05/24 09:59:27;;;;;;;8.90;7.38;;;;;;;;;;5033567;28;20418;-81
2023/05/24 10:02:09;;;;;;;8.38;7.57;;;;;;;;;;5032239;28;22097;-81
2023/05/24 10:04:35;;;;;;;7.53;6.90;;;;;;;;;;5032450;28;20855;-81
2023/05/24 10:07:01;;;;;;;7.75;6.95;;;;;;;;;;5033561;28;20858;-82
2023/05/24 10:09:32;;;;;;;8.73;7.72;;;;;;;;;;5033492;28;20470;-82
2023/05/24 10:12:01;;;;;;;7.82;7.15;;;;;;;;;;5033244;28;20407;-81
2023/05/24 10:14:27;;;;;;;7.72;7.03;;;;;;;;;;5033219;28;20387;-82
2023/05/24 10:16:53;;;;;;;7.63;6.93;;;;;;;;;;5032260;28;20383;-82
2023/05/24 10:19:20;;;;;;;7.18;6.57;;;;;;;;;;5032932;28;20442;-82
2023/05/24 10:21:47;;;;;;;7.22;6.53;;;;;;;;;;5023270;28;20389;-82
2023/05/24 10:24:13;;;;;;;7.90;7.05;;;;;;;;;;5039053;28;20395;-85
2023/05/24 10:26:41;;;;;;;8.88;7.05;;;;;;;;;;5034053;28;20406;-86
2023/05/24 10:29:09;;;;;;;7.70;6.65;;;;;;;;;;5024286;28;20404;-86
2023/05/24 10:31:37;;;;;;;7.82;7.13;;;;;;;;;;5033462;28;20411;-81
2023/05/24 10:34:05;;;;;;;7.88;7.15;;;;;;;;;;5033091;28;20386;-81
2023/05/24 10:36:31;;;;;;;8.02;7.20;;;;;;;;;;5033189;28;20430;-81
2023/05/24 10:38:57;;;;;;;7.57;6.80;;;;;;;;;;5032918;28;20379;-80
2023/05/24 10:41:26;;;;;;;8.30;6.85;;;;;;;;;;5033005;28;20437;-81
2023/05/24 10:43:53;;;;;;;8.18;7.38;;;;;;;;;;5033080;28;20415;-80
2023/05/24 10:46:21;;;;;;;8.10;6.70;;;;;;;;;;5031316;28;20406;-80
2023/05/24 10:49:00;;;;;;;7.90;7.20;;;;;;;;;;5032892;28;20383;-81
2023/05/24 10:51:37;;;;;;;7.65;6.88;;;;;;;;;;5032896;28;20403;-80
2023/05/24 10:54:25;;;;;;;7.32;6.63;;;;;;;;;;5026864;28;20429;-82
2023/05/24 10:56:52;;;;;;;7.82;7.00;;;;;;;;;;5033072;28;20375;-81
2023/05/24 10:59:22;;;;;;;8.40;7.30;;;;;;;;;;5032497;28;20411;-82
2023/05/24 11:01:54;;;;;;;6.80;6.20;;;;;;;;;;5032578;28;20445;-81
2023/05/24 11:04:20;;;;;;;8.27;6.82;;;;;;;;;;5032302;28;20411;-83
2023/05/24 11:06:49;;;;;;;7.93;7.03;;;;;;;;;;5031766;28;20399;-83
2023/05/24 11:09:16;;;;;;;8.68;7.05;;;;;;;;;;5032236;28;20466;-81
2023/05/24 11:11:46;;;;;;;7.38;6.65;;;;;;;;;;5032423;28;20415;-81
2023/05/24 11:14:13;;;;;;;8.45;7.65;;;;;;;;;;5032450;28;20401;-83
2023/05/24 11:16:39;;;;;;;6.95;6.25;;;;;;;;;;5031056;28;20386;-81
2023/05/24 11:19:24;;;;;;;7.13;6.43;;;;;;;;;;5021970;28;20768;-83
2023/05/24 11:21:57;;;;;;;6.97;6.28;;;;;;;;;;5030416;28;20387;-84
2023/05/24 11:24:24;;;;;;;7.07;6.38;;;;;;;;;;5026216;28;20434;-81
2023/05/24 11:26:53;;;;;;;8.15;6.13;;;;;;;;;;5030771;28;20399;-83
2023/05/24 11:29:21;;;;;;;8.40;6.37;;;;;;;;;;5030485;28;20470;-82
2023/05/24 11:31:49;;;;;;;6.25;5.65;;;;;;;;;;5031690;28;20911;-80
2023/05/24 11:34:16;;;;;;;7.68;6.22;;;;;;;;;;5030969;28;20383;-80
2023/05/24 11:36:42;;;;;;;7.68;5.90;;;;;;;;;;5029580;28;20489;-81
2023/05/24 11:39:08;;;;;;;6.30;5.70;;;;;;;;;;5024928;28;20856;-81
2023/05/24 11:41:35;;;;;;;6.88;6.18;;;;;;;;;;5031665;28;20383;-82
2023/05/24 11:44:02;;;;;;;9.00;5.97;;;;;;;;;;5030329;28;20375;-82
2023/05/24 11:46:28;;;;;;;6.28;5.68;;;;;;;;;;5031736;28;20418;-82
2023/05/24 11:48:56;;;;;;;6.25;5.65;;;;;;;;;;5030582;28;20402;-84
2023/05/24 11:51:25;;;;;;;7.80;5.90;;;;;;;;;;5031642;28;20403;-84
2023/05/24 11:53:53;;;;;;;8.00;6.05;;;;;;;;;;5030935;28;20446;-84
2023/05/24 11:58:52;;;;;;;7.50;5.95;;;;;;;;;;5007006;28;20440;-87
2023/05/24 12:01:27;;;;;;;7.40;6.57;;;;;;;;;;5010490;28;20417;-88
2023/05/24 12:03:53;;;;;;;7.93;6.30;;;;;;;;;;4998227;28;20405;-87
2023/05/24 12:06:20;;;;;;;8.13;6.43;;;;;;;;;;5011303;28;20392;-84
2023/05/24 12:08:47;;;;;;;7.43;6.38;;;;;;;;;;5011017;28;20393;-89
2023/05/24 12:11:13;;;;;;;6.88;5.95;;;;;;;;;;5011349;28;20423;-89
2023/05/24 12:13:39;;;;;;;7.30;6.60;;;;;;;;;;5010790;28;20500;-87
2023/05/24 12:16:06;;;;;;;7.78;7.07;;;;;;;;;;5008379;28;20388;-87
2023/05/24 12:18:32;;;;;;;9.57;6.65;;;;;;;;;;5010370;28;20381;-89
2023/05/24 12:20:58;;;;;;;8.40;6.35;;;;;;;;;;5011754;28;20405;-88
2023/05/24 12:23:30;;;;;;;7.68;5.63;;;;;;;;;;5010942;28;20925;-88
2023/05/24 12:26:00;;;;;;;7.10;5.55;;;;;;;;;;5010499;28;20388;-87
2023/05/24 12:28:27;;;;;;;9.32;5.70;;;;;;;;;;5011107;28;20420;-87
2023/05/24 12:30:53;;;;;;;7.13;5.22;;;;;;;;;;5002759;28;20405;-89
2023/05/24 12:33:20;;;;;;;6.05;5.32;;;;;;;;;;5011079;28;20859;-88
2023/05/24 12:35:46;;;;;;;7.35;5.50;;;;;;;;;;5011139;28;20392;-89
2023/05/24 12:38:12;;;;;;;8.07;5.45;;;;;;;;;;5010970;28;20385;-89
2023/05/24 12:40:41;;;;;;;8.82;5.60;;;;;;;;;;4993531;28;20882;-88
2023/05/24 12:43:07;;;;;;;6.65;5.32;;;;;;;;;;5011129;28;20397;-88
2023/05/24 12:45:33;;;;;;;6.13;4.95;;;;;;;;;;5014766;28;20464;-89
2023/05/24 12:48:01;;;;;;;8.57;5.55;;;;;;;;;;5014872;28;20411;-88
2023/05/24 12:50:27;;;;;;;8.75;5.72;;;;;;;;;;5014683;28;20384;-88
2023/05/24 12:52:53;;;;;;;8.57;5.82;;;;;;;;;;5014777;28;20391;-87
2023/05/24 12:55:21;;;;;;;7.30;5.55;;;;;;;;;;5014612;28;20392;-88
2023/05/24 12:57:54;;;;;;;8.68;6.07;;;;;;;;;;5014451;28;20409;-88
2023/05/24 13:00:21;;;;;;;7.55;6.00;;;;;;;;;;5013936;28;20421;-89
2023/05/24 13:02:48;;;;;;;8.60;6.30;;;;;;;;;;5013673;28;20387;-88
2023/05/24 13:05:14;;;;;;;8.13;5.95;;;;;;;;;;5014515;28;20438;-88
2023/05/24 13:07:42;;;;;;;6.70;5.82;;;;;;;;;;5014214;28;20473;-87
2023/05/24 13:10:08;;;;;;;9.03;6.10;;;;;;;;;;5013935;28;20416;-87
2023/05/24 13:12:34;;;;;;;8.35;5.82;;;;;;;;;;5013546;28;20413;-87
2023/05/24 13:15:00;;;;;;;10.13;5.90;;;;;;;;;;5013729;28;20413;-87
2023/05/24 13:17:26;;;;;;;8.88;6.15;;;;;;;;;;5012890;28;20383;-88
2023/05/24 13:19:53;;;;;;;8.95;5.70;;;;;;;;;;5013308;28;20790;-88
2023/05/24 13:22:19;;;;;;;7.18;5.70;;;;;;;;;;5014024;28;20420;-89
2023/05/24 13:24:45;;;;;;;7.87;6.00;;;;;;;;;;5013621;28;20411;-88
2023/05/24 13:27:12;;;;;;;8.32;5.78;;;;;;;;;;5014140;28;20385;-88
2023/05/24 13:29:39;;;;;;;10.07;5.90;;;;;;;;;;5013874;28;20874;-88
2023/05/24 13:32:05;;;;;;;10.68;5.78;;;;;;;;;;5013437;28;20416;-87
2023/05/24 13:34:32;;;;;;;8.55;5.65;;;;;;;;;;5016066;28;20377;-88
2023/05/24 13:36:59;;;;;;;9.85;5.82;;;;;;;;;;5013289;28;20381;-87
2023/05/24 13:39:26;;;;;;;6.32;5.50;;;;;;;;;;5013279;28;20431;-88
2023/05/24 13:41:52;;;;;;;9.93;5.95;;;;;;;;;;4996122;28;20738;-88
2023/05/24 13:44:18;;;;;;;7.93;5.20;;;;;;;;;;5013171;28;20411;-88
2023/05/24 13:46:44;;;;;;;7.05;5.50;;;;;;;;;;5013233;28;20401;-88
2023/05/24 13:49:10;;;;;;;7.47;5.60;;;;;;;;;;5013366;28;20408;-87
2023/05/24 13:51:37;;;;;;;7.93;5.70;;;;;;;;;;5013352;28;20905;-88
2023/05/24 13:54:05;;;;;;;7.55;5.47;;;;;;;;;;5013475;28;20385;-87
2023/05/24 13:56:32;;;;;;;10.52;6.40;;;;;;;;;;5012371;28;20923;-87
2023/05/24 13:58:59;;;;;;;10.18;5.70;;;;;;;;;;5013398;28;20739;-87
2023/05/24 14:01:25;;;;;;;9.38;5.70;;;;;;;;;;5012983;28;20435;-87
2023/05/24 14:03:52;;;;;;;8.53;5.37;;;;;;;;;;5012477;28;20583;-87
2023/05/24 14:06:19;;;;;;;7.78;5.40;;;;;;;;;;5012217;28;20467;-87
2023/05/24 14:08:45;;;;;;;8.25;5.55;;;;;;;;;;5012706;28;20389;-87
2023/05/24 14:11:13;;;;;;;10.13;5.50;;;;;;;;;;5013270;28;20408;-88
2023/05/24 14:13:39;;;;;;;8.07;5.28;;;;;;;;;;5013299;28;20460;-87
2023/05/24 14:16:05;;;;;;;7.50;5.20;;;;;;;;;;4995501;28;20462;-87
2023/05/24 14:18:31;;;;;;;6.55;5.68;;;;;;;;;;5013221;28;20424;-87
2023/05/24 14:20:57;;;;;;;7.72;5.57;;;;;;;;;;5013018;28;20420;-88
2023/05/24 14:23:23;;;;;;;9.23;5.82;;;;;;;;;;5013458;28;20377;-88
2023/05/24 14:25:50;;;;;;;7.03;5.50;;;;;;;;;;5015676;28;20393;-88
2023/05/24 14:28:17;;;;;;;7.82;5.78;;;;;;;;;;5013025;28;20438;-88
2023/05/24 14:30:43;;;;;;;7.38;5.07;;;;;;;;;;5012890;28;20424;-87
2023/05/24 14:33:12;;;;;;;7.20;5.18;;;;;;;;;;4995283;28;20961;-88
2023/05/24 14:35:38;;;;;;;6.72;5.22;;;;;;;;;;5012970;28;20385;-88
2023/05/24 14:38:08;;;;;;;7.97;5.90;;;;;;;;;;5012720;28;20562;-88
2023/05/24 14:40:35;;;;;;;7.13;5.68;;;;;;;;;;5012816;28;20804;-88